Time;durP1;ratioP1;P1;durP2;ratioP2;P2;SDS_P1;SDS_P2;PMS_P1;PMS_P2;Temp;Humidity;BMP_temperature;BMP_pressure;BME280_temperature;BME280_humidity;BME280_pressure;Samples;Min_cycle;Max_cycle;Signal;HPM_P1;HPM_P2
2023/11/09 00:01:17;;;;;;;1.23;0.73;;;9.10;99.90;;;;;;5101621;28;20209;-43
2023/11/09 00:03:43;;;;;;;2.43;0.97;;;9.10;99.90;;;;;;5066273;28;20194;-46
2023/11/09 00:06:11;;;;;;;2.30;0.83;;;9.10;99.90;;;;;;5100315;28;20221;-45
2023/11/09 00:08:42;;;;;;;2.23;1.10;;;9.10;99.90;;;;;;5101319;28;20199;-45
2023/11/09 00:11:09;;;;;;;3.77;0.87;;;9.10;99.90;;;;;;5089734;28;20264;-45
2023/11/09 00:13:36;;;;;;;1.10;1.00;;;9.10;99.90;;;;;;5101836;28;20254;-44
2023/11/09 00:16:03;;;;;;;1.33;1.23;;;9.10;99.90;;;;;;5095978;28;20213;-45
2023/11/09 00:18:32;;;;;;;2.77;0.80;;;9.10;99.90;;;;;;5069051;28;20206;-44
2023/11/09 00:20:59;;;;;;;1.83;1.00;;;9.10;99.90;;;;;;5098456;28;20262;-45
2023/11/09 00:23:26;;;;;;;2.27;1.00;;;9.10;99.90;;;;;;5101960;28;20201;-46
2023/11/09 00:25:52;;;;;;;1.43;1.30;;;9.10;99.90;;;;;;5089812;28;20213;-49
2023/11/09 00:28:19;;;;;;;1.13;1.03;;;9.10;99.90;;;;;;5098777;28;20213;-44
2023/11/09 00:30:46;;;;;;;1.30;1.20;;;9.10;99.90;;;;;;5097890;28;20222;-45
2023/11/09 00:33:12;;;;;;;6.73;1.43;;;9.10;99.90;;;;;;5100241;28;20221;-46
2023/11/09 00:35:40;;;;;;;1.30;1.13;;;9.10;99.90;;;;;;5071505;28;20493;-47
2023/11/09 00:38:08;;;;;;;3.47;0.87;;;9.20;99.90;;;;;;5099880;28;20250;-45
2023/11/09 00:40:37;;;;;;;1.87;1.23;;;9.10;99.90;;;;;;5099925;28;20221;-45
2023/11/09 00:43:04;;;;;;;2.87;1.07;;;9.10;99.90;;;;;;5092277;28;20193;-47
2023/11/09 00:45:34;;;;;;;1.10;0.93;;;9.10;99.90;;;;;;5108467;28;20241;-44
2023/11/09 00:48:01;;;;;;;2.80;1.00;;;9.20;99.90;;;;;;5100411;28;20907;-45
2023/11/09 00:50:27;;;;;;;1.30;1.20;;;9.20;99.90;;;;;;5071407;27;20210;-45
2023/11/09 00:52:56;;;;;;;3.47;1.00;;;9.20;99.90;;;;;;5103094;27;20903;-49
2023/11/09 00:55:23;;;;;;;1.30;1.03;;;9.20;99.90;;;;;;5104861;28;20221;-44
2023/11/09 00:57:49;;;;;;;1.33;1.00;;;9.20;99.90;;;;;;5089152;28;20193;-50
2023/11/09 01:00:17;;;;;;;1.30;1.20;;;9.20;99.90;;;;;;5099737;28;20201;-45
2023/11/09 01:02:48;;;;;;;2.87;1.60;;;9.20;99.90;;;;;;5102260;28;20190;-49
2023/11/09 01:05:16;;;;;;;1.47;1.07;;;9.20;99.90;;;;;;5071955;28;20247;-46
2023/11/09 01:07:43;;;;;;;4.13;1.40;;;9.20;99.90;;;;;;5103329;28;20272;-46
2023/11/09 01:10:11;;;;;;;1.13;1.03;;;9.20;99.90;;;;;;5101646;28;20185;-46
2023/11/09 01:12:38;;;;;;;1.77;1.17;;;9.20;99.90;;;;;;5097522;28;20195;-47
2023/11/09 01:15:06;;;;;;;1.50;1.00;;;9.20;99.90;;;;;;5098875;28;20221;-50
2023/11/09 01:17:36;;;;;;;1.30;1.20;;;9.20;99.90;;;;;;5102680;28;20691;-47
2023/11/09 01:20:03;;;;;;;1.33;1.13;;;9.20;99.90;;;;;;5101228;28;20919;-47
2023/11/09 01:22:30;;;;;;;1.07;0.97;;;9.20;99.90;;;;;;5070724;28;20597;-46
2023/11/09 01:24:57;;;;;;;1.37;1.10;;;9.30;99.90;;;;;;5102292;27;20306;-45
2023/11/09 01:27:26;;;;;;;2.60;1.40;;;9.30;99.90;;;;;;5102095;27;20202;-49
2023/11/09 01:29:52;;;;;;;1.10;1.00;;;9.30;99.90;;;;;;5092580;28;20203;-47
2023/11/09 01:32:19;;;;;;;1.70;1.60;;;9.30;99.90;;;;;;5104421;27;20609;-46
2023/11/09 01:34:47;;;;;;;1.20;1.00;;;9.30;99.90;;;;;;5096524;28;20206;-45
2023/11/09 01:37:14;;;;;;;1.83;1.03;;;9.30;99.90;;;;;;5071930;28;20614;-48
2023/11/09 01:39:41;;;;;;;3.23;1.30;;;9.30;99.90;;;;;;5100518;28;20683;-49
2023/11/09 01:42:08;;;;;;;0.90;0.90;;;9.30;99.90;;;;;;5102135;28;20213;-45
2023/11/09 01:44:36;;;;;;;3.00;1.27;;;9.30;99.90;;;;;;5100054;27;20194;-46
2023/11/09 01:47:03;;;;;;;2.57;0.90;;;9.30;99.90;;;;;;5094879;28;20193;-46
2023/11/09 01:49:31;;;;;;;1.67;0.90;;;9.30;99.90;;;;;;5104937;27;20189;-45
2023/11/09 01:51:58;;;;;;;1.00;0.90;;;9.30;99.90;;;;;;5070373;27;20209;-44
2023/11/09 01:54:26;;;;;;;1.30;1.20;;;9.30;99.90;;;;;;5104323;27;20198;-45
2023/11/09 01:56:53;;;;;;;2.80;0.97;;;9.40;99.90;;;;;;5102596;27;20215;-46
2023/11/09 01:59:21;;;;;;;1.00;0.90;;;9.40;99.90;;;;;;5102884;28;20202;-45
2023/11/09 02:01:52;;;;;;;1.10;1.00;;;9.40;99.90;;;;;;5085807;28;20220;-44
2023/11/09 02:04:20;;;;;;;1.00;0.90;;;9.40;99.90;;;;;;5099935;28;20233;-44
2023/11/09 02:06:47;;;;;;;2.40;0.87;;;9.40;99.90;;;;;;5099679;27;20209;-46
2023/11/09 02:09:14;;;;;;;0.73;0.70;;;9.40;99.90;;;;;;5073242;28;20259;-46
2023/11/09 02:11:41;;;;;;;0.80;0.80;;;9.50;99.90;;;;;;5099892;28;20202;-45
2023/11/09 02:14:07;;;;;;;0.60;0.60;;;9.50;99.90;;;;;;5101655;28;20193;-43
2023/11/09 02:16:35;;;;;;;1.17;0.77;;;9.40;99.90;;;;;;5094035;27;20278;-46
2023/11/09 02:19:03;;;;;;;2.67;1.00;;;9.50;99.90;;;;;;5104719;27;20196;-47
2023/11/09 02:21:32;;;;;;;1.43;1.00;;;9.50;99.90;;;;;;5101691;28;20205;-47
2023/11/09 02:24:01;;;;;;;1.00;0.90;;;9.50;99.90;;;;;;5067935;28;23525;-44
2023/11/09 02:26:29;;;;;;;2.70;0.83;;;9.50;99.90;;;;;;5100804;28;20213;-47
2023/11/09 02:28:56;;;;;;;1.80;0.83;;;9.50;99.90;;;;;;5098930;28;20274;-48
2023/11/09 02:31:23;;;;;;;1.27;1.10;;;9.50;99.90;;;;;;5093881;28;20197;-43
2023/11/09 02:33:50;;;;;;;0.80;0.80;;;9.50;99.90;;;;;;5096788;27;20199;-44
2023/11/09 02:36:17;;;;;;;1.30;1.10;;;9.50;99.90;;;;;;5103503;28;20831;-46
2023/11/09 02:38:45;;;;;;;2.47;1.03;;;9.50;99.90;;;;;;5101686;27;20209;-49
2023/11/09 02:41:12;;;;;;;0.90;0.90;;;9.50;99.90;;;;;;5074330;27;20213;-46
2023/11/09 02:43:42;;;;;;;1.17;0.90;;;9.50;99.90;;;;;;5098402;28;20197;-46
2023/11/09 02:46:11;;;;;;;0.90;0.80;;;9.50;99.90;;;;;;5100600;28;20217;-46
2023/11/09 02:48:38;;;;;;;3.83;1.07;;;9.50;99.90;;;;;;5092566;28;20213;-44
2023/11/09 02:51:06;;;;;;;1.23;1.00;;;9.50;99.90;;;;;;5101687;28;20181;-46
2023/11/09 02:53:32;;;;;;;1.20;1.10;;;9.50;99.90;;;;;;5103343;27;20211;-44
2023/11/09 02:55:59;;;;;;;1.03;0.90;;;9.50;99.90;;;;;;5068881;28;20221;-47
2023/11/09 02:58:25;;;;;;;0.83;0.83;;;9.50;99.90;;;;;;5104679;27;20193;-45
2023/11/09 03:00:54;;;;;;;0.93;0.93;;;9.50;99.90;;;;;;5097918;28;20255;-46
2023/11/09 03:03:22;;;;;;;1.23;0.90;;;9.50;99.90;;;;;;5076641;28;20197;-46
2023/11/09 03:05:49;;;;;;;1.10;1.00;;;9.50;99.90;;;;;;5099676;28;20224;-47
2023/11/09 03:08:16;;;;;;;0.80;0.80;;;9.50;99.90;;;;;;5102328;27;20197;-46
2023/11/09 03:10:43;;;;;;;1.37;1.10;;;9.50;99.90;;;;;;5103434;27;20928;-42
2023/11/09 03:13:09;;;;;;;1.13;1.03;;;9.40;99.90;;;;;;5071554;28;20197;-47
2023/11/09 03:15:36;;;;;;;5.40;0.90;;;9.40;99.90;;;;;;5099084;28;20197;-44
2023/11/09 03:18:05;;;;;;;0.83;0.70;;;9.40;99.90;;;;;;5093377;28;20217;-42
2023/11/09 03:20:32;;;;;;;0.90;0.90;;;9.50;99.90;;;;;;5097744;28;20902;-43
2023/11/09 03:22:59;;;;;;;1.20;1.00;;;9.40;99.90;;;;;;5101254;28;20221;-49
2023/11/09 03:25:26;;;;;;;1.73;0.90;;;9.50;99.90;;;;;;5097147;28;20267;-47
2023/11/09 03:27:52;;;;;;;0.83;0.83;;;9.50;99.90;;;;;;5069677;27;20277;-47
2023/11/09 03:30:20;;;;;;;3.80;1.10;;;9.50;99.90;;;;;;5100266;28;20259;-43
2023/11/09 03:32:47;;;;;;;1.60;0.90;;;9.50;99.90;;;;;;5092196;28;20194;-46
2023/11/09 03:35:15;;;;;;;1.10;1.00;;;9.50;99.90;;;;;;5095695;28;20811;-44
2023/11/09 03:37:43;;;;;;;0.70;0.70;;;9.50;99.90;;;;;;5100305;28;20205;-48
2023/11/09 03:40:12;;;;;;;1.30;0.87;;;9.50;99.90;;;;;;5100528;28;20182;-42
2023/11/09 03:42:39;;;;;;;2.13;1.00;;;9.50;99.90;;;;;;5094324;28;20274;-45
2023/11/09 03:45:08;;;;;;;0.50;0.50;;;9.50;99.90;;;;;;5067697;28;20240;-44
2023/11/09 03:47:35;;;;;;;0.93;0.93;;;9.50;99.90;;;;;;5102327;28;20193;-44
2023/11/09 03:50:04;;;;;;;0.93;0.80;;;9.50;99.90;;;;;;5085519;28;20193;-43
2023/11/09 03:52:32;;;;;;;1.93;0.67;;;9.50;99.90;;;;;;5102410;28;20223;-45
2023/11/09 03:54:59;;;;;;;1.63;0.80;;;9.50;99.90;;;;;;5098793;28;20201;-46
2023/11/09 03:57:27;;;;;;;1.63;0.80;;;9.50;99.90;;;;;;5098850;28;20232;-42
2023/11/09 03:59:54;;;;;;;1.53;0.80;;;9.50;99.90;;;;;;5068493;28;20274;-50
2023/11/09 04:02:20;;;;;;;1.03;0.93;;;9.50;99.90;;;;;;5102160;28;20217;-43
2023/11/09 04:04:47;;;;;;;2.20;1.00;;;9.50;99.90;;;;;;5085553;28;20279;-48
2023/11/09 04:07:14;;;;;;;1.80;0.80;;;9.50;99.90;;;;;;5100690;28;20185;-44
2023/11/09 04:09:42;;;;;;;0.70;0.70;;;9.50;99.90;;;;;;5100478;28;20741;-51
2023/11/09 04:12:11;;;;;;;0.83;0.80;;;9.50;99.90;;;;;;5101277;28;20177;-49
2023/11/09 04:14:38;;;;;;;0.80;0.70;;;9.50;99.90;;;;;;5094079;28;20611;-48
2023/11/09 04:17:05;;;;;;;0.70;0.70;;;9.50;99.90;;;;;;5082061;28;20251;-43
2023/11/09 04:19:32;;;;;;;2.03;0.67;;;9.50;99.90;;;;;;5087417;28;20198;-44
2023/11/09 04:21:59;;;;;;;0.73;0.73;;;9.50;99.90;;;;;;5101659;28;20209;-46
2023/11/09 04:24:26;;;;;;;0.70;0.67;;;9.50;99.90;;;;;;5105316;28;20680;-43
2023/11/09 04:26:54;;;;;;;0.90;0.90;;;9.50;99.90;;;;;;5101543;28;20274;-47
2023/11/09 04:29:21;;;;;;;3.60;0.90;;;9.50;99.90;;;;;;5105582;28;20208;-43
2023/11/09 04:31:48;;;;;;;0.70;0.70;;;9.50;99.90;;;;;;5071035;28;20285;-46
2023/11/09 04:34:15;;;;;;;0.87;0.83;;;9.50;99.90;;;;;;5080200;28;20209;-42
2023/11/09 04:36:44;;;;;;;1.30;0.90;;;9.50;99.90;;;;;;5101687;28;20285;-45
2023/11/09 04:39:13;;;;;;;0.90;0.83;;;9.50;99.90;;;;;;5105501;28;20595;-46
2023/11/09 04:41:41;;;;;;;1.00;1.00;;;9.50;99.90;;;;;;5103157;27;20201;-44
2023/11/09 04:44:09;;;;;;;1.00;0.90;;;9.50;99.90;;;;;;5105423;28;20201;-44
2023/11/09 04:46:40;;;;;;;1.80;0.80;;;9.60;99.90;;;;;;5075603;27;20232;-46
2023/11/09 04:49:07;;;;;;;0.90;0.90;;;9.60;99.90;;;;;;5105298;28;20277;-44
2023/11/09 04:51:35;;;;;;;1.10;1.00;;;9.60;99.90;;;;;;5090323;28;20212;-44
2023/11/09 04:54:07;;;;;;;1.60;1.00;;;9.60;99.90;;;;;;5103953;28;20192;-43
2023/11/09 04:56:52;;;;;;;1.17;1.07;;;9.60;99.90;;;;;;5103450;28;20299;-46
2023/11/09 05:07:35;;;;;;;2.00;1.00;;;9.60;99.90;;;;;;5064410;28;20201;-48
2023/11/09 05:10:02;;;;;;;3.23;1.40;;;9.60;99.90;;;;;;5097736;27;20273;-45
2023/11/09 05:12:29;;;;;;;1.40;1.30;;;9.60;99.90;;;;;;5095050;27;20285;-48
2023/11/09 05:15:00;;;;;;;1.40;1.30;;;9.60;99.90;;;;;;5102194;28;20185;-44
2023/11/09 05:17:28;;;;;;;1.60;1.50;;;9.60;99.90;;;;;;5095400;27;20200;-46
2023/11/09 05:19:56;;;;;;;1.43;1.33;;;9.60;99.90;;;;;;5084824;28;20196;-42
2023/11/09 05:22:22;;;;;;;1.87;1.60;;;9.60;99.90;;;;;;5085681;28;20216;-44
2023/11/09 05:24:50;;;;;;;1.50;1.40;;;9.60;99.90;;;;;;5096650;28;20196;-47
2023/11/09 05:27:17;;;;;;;1.93;1.37;;;9.60;99.90;;;;;;5096193;28;20279;-42
2023/11/09 05:29:46;;;;;;;1.70;1.60;;;9.60;99.90;;;;;;5091013;28;20194;-45
2023/11/09 05:32:15;;;;;;;1.47;1.37;;;9.60;99.90;;;;;;5101836;28;20190;-45
2023/11/09 05:34:42;;;;;;;1.33;1.23;;;9.70;99.90;;;;;;5073513;28;20548;-48
2023/11/09 05:37:09;;;;;;;1.70;1.60;;;9.60;99.90;;;;;;5083308;27;20201;-44
2023/11/09 05:39:36;;;;;;;1.63;1.53;;;9.60;99.90;;;;;;5101014;28;20284;-43
2023/11/09 05:42:03;;;;;;;1.40;1.30;;;9.70;99.90;;;;;;5097694;28;20198;-44
2023/11/09 05:44:30;;;;;;;2.97;1.50;;;9.60;99.90;;;;;;5096948;28;20193;-44
2023/11/09 05:46:57;;;;;;;1.60;1.50;;;9.60;99.90;;;;;;5098363;28;20262;-47
2023/11/09 05:49:25;;;;;;;1.60;1.50;;;9.60;99.90;;;;;;5071269;28;20209;-44
2023/11/09 05:51:53;;;;;;;3.50;1.60;;;9.60;99.90;;;;;;5096333;28;20202;-45
2023/11/09 05:54:20;;;;;;;1.43;1.33;;;9.60;99.90;;;;;;5086461;28;21059;-45
2023/11/09 05:56:47;;;;;;;1.57;1.47;;;9.60;99.90;;;;;;5097964;28;20214;-48
2023/11/09 05:59:14;;;;;;;2.07;1.90;;;9.60;99.90;;;;;;5090586;28;20198;-43
2023/11/09 06:01:42;;;;;;;1.83;1.73;;;9.60;99.90;;;;;;5095974;28;20213;-43
2023/11/09 06:04:09;;;;;;;1.60;1.50;;;9.60;99.90;;;;;;5098150;27;20262;-44
2023/11/09 06:06:38;;;;;;;3.93;2.20;;;9.60;99.90;;;;;;5064648;28;20278;-44
2023/11/09 06:09:06;;;;;;;2.40;1.73;;;9.60;99.90;;;;;;5087137;28;20652;-45
2023/11/09 06:11:34;;;;;;;1.90;1.57;;;9.60;99.90;;;;;;5091982;28;20178;-45
2023/11/09 06:14:03;;;;;;;1.87;1.77;;;9.60;99.90;;;;;;5096896;27;20273;-46
2023/11/09 06:16:30;;;;;;;1.97;1.77;;;9.60;99.90;;;;;;5093770;28;20304;-46
2023/11/09 06:18:58;;;;;;;2.27;2.10;;;9.60;99.90;;;;;;5100313;28;20284;-45
2023/11/09 06:21:25;;;;;;;2.10;2.00;;;9.60;99.90;;;;;;5064730;28;20202;-44
2023/11/09 06:23:53;;;;;;;2.20;2.00;;;9.60;99.90;;;;;;5082654;28;20289;-42
2023/11/09 06:26:24;;;;;;;4.50;2.40;;;9.60;99.90;;;;;;5098184;28;20221;-43
2023/11/09 06:28:52;;;;;;;3.33;2.00;;;9.60;99.90;;;;;;5097802;28;20620;-43
2023/11/09 06:31:21;;;;;;;3.23;1.80;;;9.60;99.90;;;;;;5081857;28;20488;-46
2023/11/09 06:33:51;;;;;;;2.30;1.90;;;9.60;99.90;;;;;;5098739;28;20281;-45
2023/11/09 06:36:18;;;;;;;1.60;1.50;;;9.60;99.90;;;;;;5090129;28;20213;-43
2023/11/09 06:38:44;;;;;;;2.37;2.17;;;9.60;99.90;;;;;;5070994;28;20197;-42
2023/11/09 06:41:13;;;;;;;2.23;1.97;;;9.60;99.90;;;;;;5082575;28;20212;-43
2023/11/09 06:43:40;;;;;;;3.53;1.40;;;9.60;99.90;;;;;;5101213;28;20270;-42
2023/11/09 06:46:07;;;;;;;2.60;1.80;;;9.60;99.90;;;;;;5093589;28;20297;-42
2023/11/09 06:48:34;;;;;;;1.73;1.63;;;9.60;99.90;;;;;;5101756;28;20186;-42
2023/11/09 06:51:01;;;;;;;3.33;1.80;;;9.60;99.90;;;;;;5081447;28;20213;-42
2023/11/09 06:53:27;;;;;;;3.17;1.60;;;9.60;99.90;;;;;;5063607;27;20628;-44
2023/11/09 06:55:54;;;;;;;2.00;1.80;;;9.60;99.90;;;;;;5085156;28;20379;-43
2023/11/09 06:58:23;;;;;;;1.60;1.50;;;9.60;99.90;;;;;;5089742;28;20216;-44
2023/11/09 07:00:49;;;;;;;2.10;1.90;;;9.60;99.90;;;;;;5083505;28;20287;-42
2023/11/09 07:03:16;;;;;;;2.00;1.90;;;9.50;99.90;;;;;;5100327;28;20749;-43
2023/11/09 07:05:43;;;;;;;2.13;1.93;;;9.60;99.90;;;;;;5084856;28;20870;-42
2023/11/09 07:08:10;;;;;;;2.10;1.90;;;9.60;99.90;;;;;;5095179;28;20224;-46
2023/11/09 07:10:37;;;;;;;3.03;2.00;;;9.60;99.90;;;;;;5051025;28;20209;-44
2023/11/09 07:13:05;;;;;;;2.50;2.00;;;9.60;99.90;;;;;;5093242;28;20242;-42
2023/11/09 07:15:33;;;;;;;2.33;1.90;;;9.60;99.90;;;;;;5089443;27;20212;-45
2023/11/09 07:18:03;;;;;;;2.30;1.90;;;9.50;99.90;;;;;;5078615;28;20201;-43
2023/11/09 07:20:31;;;;;;;2.13;1.93;;;9.60;99.90;;;;;;5079175;28;20292;-45
2023/11/09 07:23:00;;;;;;;5.27;1.87;;;9.60;99.90;;;;;;5102545;28;20213;-44
2023/11/09 07:25:31;;;;;;;2.93;1.90;;;9.60;99.90;;;;;;5074836;28;20209;-43
2023/11/09 07:27:58;;;;;;;2.00;1.90;;;9.50;99.90;;;;;;5085419;28;20201;-43
2023/11/09 07:30:28;;;;;;;2.40;2.20;;;9.50;99.90;;;;;;5099335;27;20361;-43
2023/11/09 07:32:56;;;;;;;1.63;1.53;;;9.60;99.90;;;;;;5085839;28;20246;-43
2023/11/09 07:35:24;;;;;;;1.83;1.73;;;9.60;99.90;;;;;;5092256;28;20866;-43
2023/11/09 07:37:51;;;;;;;2.20;1.80;;;9.60;99.90;;;;;;5096761;28;20197;-43
2023/11/09 07:40:18;;;;;;;1.77;1.67;;;9.50;99.90;;;;;;5065509;28;20263;-42
2023/11/09 07:42:45;;;;;;;1.70;1.60;;;9.60;99.90;;;;;;5085000;28;20212;-47
2023/11/09 07:45:13;;;;;;;1.77;1.67;;;9.60;99.90;;;;;;5091082;28;20304;-47
2023/11/09 07:47:40;;;;;;;1.87;1.70;;;9.60;99.90;;;;;;5082047;28;20201;-44
2023/11/09 07:50:11;;;;;;;1.87;1.60;;;9.60;99.90;;;;;;5092878;28;20276;-51
2023/11/09 07:52:38;;;;;;;1.63;1.53;;;9.60;99.90;;;;;;5089441;28;20225;-46
2023/11/09 07:55:05;;;;;;;1.53;1.43;;;9.60;99.90;;;;;;5092014;28;20213;-48
2023/11/09 07:57:34;;;;;;;1.63;1.53;;;9.60;99.90;;;;;;5074300;28;20205;-43
2023/11/09 08:00:02;;;;;;;1.60;1.50;;;9.60;99.90;;;;;;5075725;28;20189;-46
2023/11/09 08:02:32;;;;;;;3.83;1.57;;;9.60;99.90;;;;;;5098114;28;20429;-46
2023/11/09 08:04:59;;;;;;;3.73;1.37;;;9.60;99.90;;;;;;5080273;28;20243;-43
2023/11/09 08:07:27;;;;;;;1.13;1.07;;;9.60;99.90;;;;;;5105758;28;20284;-43
2023/11/09 08:09:54;;;;;;;1.60;1.50;;;9.60;99.90;;;;;;5094972;28;20205;-45
2023/11/09 08:12:23;;;;;;;1.60;1.50;;;9.60;99.90;;;;;;5085306;27;20937;-43
2023/11/09 08:14:50;;;;;;;1.50;1.40;;;9.60;99.90;;;;;;5082333;28;20532;-48
2023/11/09 08:17:17;;;;;;;2.53;1.30;;;9.60;99.90;;;;;;5093714;28;20885;-43
2023/11/09 08:19:45;;;;;;;1.37;1.27;;;9.60;99.90;;;;;;5092370;27;20268;-48
2023/11/09 08:22:16;;;;;;;3.43;1.47;;;9.60;99.90;;;;;;5097512;28;20239;-45
2023/11/09 08:24:45;;;;;;;1.50;1.40;;;9.60;99.90;;;;;;5099865;27;20707;-46
2023/11/09 08:27:20;;;;;;;1.20;1.10;;;9.60;99.90;;;;;;5071086;27;20300;-45
2023/11/09 08:29:52;;;;;;;1.50;1.40;;;9.60;99.90;;;;;;5087117;28;20200;-45
2023/11/09 08:32:38;;;;;;;1.73;1.30;;;9.60;99.90;;;;;;5093623;28;20714;-44
2023/11/09 08:35:33;;;;;;;2.27;1.10;;;9.60;99.90;;;;;;5077532;28;21064;-43
2023/11/09 08:38:39;;;;;;;1.10;1.00;;;9.60;99.90;;;;;;5098237;28;20205;-44
2023/11/09 08:41:41;;;;;;;1.47;0.90;;;9.60;99.90;;;;;;5091360;28;20284;-42
2023/11/09 08:47:05;;;;;;;1.43;1.17;;;9.60;99.90;;;;;;5086874;27;20935;-44
2023/11/09 08:49:35;;;;;;;0.73;0.73;;;9.60;99.90;;;;;;5094542;27;20202;-46
2023/11/09 08:52:23;;;;;;;1.43;1.10;;;9.60;99.90;;;;;;5100467;28;20185;-46
2023/11/09 08:54:56;;;;;;;0.90;0.90;;;9.70;99.90;;;;;;5095884;27;20205;-43
2023/11/09 08:57:31;;;;;;;0.70;0.70;;;9.70;99.90;;;;;;5096251;28;20205;-43
2023/11/09 09:00:01;;;;;;;0.93;0.87;;;9.70;99.90;;;;;;5073583;27;21060;-43
2023/11/09 09:02:31;;;;;;;1.20;1.10;;;9.70;99.90;;;;;;5092014;28;20689;-46
2023/11/09 09:05:01;;;;;;;1.07;1.00;;;9.70;99.90;;;;;;5097503;27;20201;-43
2023/11/09 09:07:29;;;;;;;1.00;0.87;;;9.80;99.90;;;;;;5101930;27;20224;-44
2023/11/09 09:10:05;;;;;;;1.57;0.80;;;9.70;99.90;;;;;;5102438;27;20874;-43
2023/11/09 09:12:34;;;;;;;1.10;0.97;;;9.70;99.90;;;;;;5082209;28;20695;-44
2023/11/09 09:15:04;;;;;;;2.47;1.00;;;9.70;99.90;;;;;;5070854;27;20229;-45
2023/11/09 09:17:45;;;;;;;0.80;0.80;;;9.70;99.90;;;;;;5092965;28;20563;-42
2023/11/09 09:20:45;;;;;;;0.80;0.80;;;9.80;99.90;;;;;;5084735;28;20262;-46
2023/11/09 09:23:50;;;;;;;0.70;0.70;;;9.80;99.90;;;;;;5099034;27;20934;-42
2023/11/09 09:26:44;;;;;;;0.90;0.80;;;9.80;99.90;;;;;;5095959;28;20312;-45
2023/11/09 09:29:21;;;;;;;0.83;0.80;;;9.80;99.90;;;;;;5064953;27;20205;-43
2023/11/09 09:31:52;;;;;;;1.20;1.00;;;9.80;99.90;;;;;;5080784;28;20189;-44
2023/11/09 09:34:49;;;;;;;2.53;0.80;;;9.80;99.90;;;;;;5102203;28;20205;-43
2023/11/09 09:37:23;;;;;;;0.80;0.80;;;9.80;99.90;;;;;;5083753;28;20205;-45
2023/11/09 09:39:54;;;;;;;1.50;0.80;;;9.80;99.90;;;;;;5103444;27;20217;-49
2023/11/09 09:42:36;;;;;;;0.73;0.73;;;9.80;99.90;;;;;;5094321;28;21028;-44
2023/11/09 09:48:01;;;;;;;0.83;0.83;;;9.90;99.90;;;;;;5088008;28;20248;-45
2023/11/09 09:50:49;;;;;;;0.80;0.80;;;9.90;99.90;;;;;;5097026;28;20189;-41
2023/11/09 09:53:26;;;;;;;1.03;1.00;;;9.90;99.90;;;;;;5084640;28;20204;-46
2023/11/09 09:55:56;;;;;;;2.97;0.80;;;9.80;99.90;;;;;;5101351;28;20217;-45
2023/11/09 09:58:36;;;;;;;1.00;1.00;;;9.90;99.90;;;;;;5094840;28;20207;-43
2023/11/09 10:01:34;;;;;;;2.27;1.57;;;9.90;99.90;;;;;;5049430;27;20230;-44
2023/11/09 10:04:04;;;;;;;1.43;1.37;;;9.90;99.90;;;;;;5087888;28;20229;-47
2023/11/09 10:06:31;;;;;;;1.60;1.50;;;9.90;99.90;;;;;;5102704;28;20580;-46
2023/11/09 10:08:58;;;;;;;1.63;1.47;;;9.90;99.90;;;;;;5078435;28;20278;-44
2023/11/09 10:11:38;;;;;;;1.87;1.67;;;9.90;99.90;;;;;;5100067;28;20251;-42
2023/11/09 10:14:11;;;;;;;1.60;1.50;;;9.90;99.90;;;;;;5091547;27;20882;-44
2023/11/09 10:16:49;;;;;;;1.60;1.50;;;10.00;99.90;;;;;;5055300;27;20640;-45
2023/11/09 10:19:43;;;;;;;3.33;1.73;;;10.00;99.90;;;;;;5103178;27;20222;-44
2023/11/09 10:25:15;;;;;;;1.77;1.43;;;10.00;99.90;;;;;;5084301;28;20233;-42
2023/11/09 10:27:48;;;;;;;1.90;1.80;;;10.00;99.90;;;;;;5096313;28;20569;-49
2023/11/09 10:30:38;;;;;;;1.27;1.17;;;10.00;99.90;;;;;;5081813;28;20193;-44
2023/11/09 10:33:42;;;;;;;1.63;1.53;;;10.10;99.90;;;;;;5077513;27;20816;-42
2023/11/09 10:36:34;;;;;;;1.93;1.27;;;10.10;99.90;;;;;;5098020;27;20837;-44
2023/11/09 10:39:39;;;;;;;1.73;1.63;;;10.10;99.90;;;;;;5085988;27;20186;-44
2023/11/09 10:42:30;;;;;;;1.93;1.83;;;10.10;99.90;;;;;;5096262;28;20280;-44
2023/11/09 10:45:03;;;;;;;1.60;1.50;;;10.20;99.90;;;;;;5081821;28;20212;-45
2023/11/09 10:47:39;;;;;;;1.67;1.57;;;10.20;99.90;;;;;;5065394;28;20267;-43
2023/11/09 10:50:34;;;;;;;1.87;1.77;;;10.20;99.90;;;;;;5096914;28;20189;-42
2023/11/09 10:53:26;;;;;;;3.23;2.00;;;10.20;99.90;;;;;;5098616;28;20234;-48
2023/11/09 10:55:59;;;;;;;1.70;1.60;;;10.20;99.90;;;;;;5083195;28;20233;-46
2023/11/09 10:58:44;;;;;;;1.97;1.57;;;10.20;99.90;;;;;;5093194;28;20208;-43
2023/11/09 11:01:31;;;;;;;1.70;1.60;;;10.20;99.90;;;;;;5084743;28;20196;-44
2023/11/09 11:04:14;;;;;;;1.57;1.50;;;10.20;99.90;;;;;;5058653;28;20646;-46
2023/11/09 11:06:51;;;;;;;2.27;1.83;;;10.20;99.90;;;;;;5108648;27;20217;-47
2023/11/09 11:09:44;;;;;;;2.27;1.93;;;10.20;99.90;;;;;;5090360;28;20213;-43
2023/11/09 11:12:37;;;;;;;9.27;4.27;;;10.30;99.90;;;;;;5094771;28;20212;-46
2023/11/09 11:15:11;;;;;;;4.60;2.47;;;10.30;99.90;;;;;;5075046;27;20217;-43
2023/11/09 11:17:55;;;;;;;4.00;2.30;;;10.30;99.90;;;;;;5081547;28;20194;-44
2023/11/09 11:20:57;;;;;;;3.13;2.93;;;10.30;99.90;;;;;;5066371;28;20211;-45
2023/11/09 11:24:10;;;;;;;2.90;2.70;;;10.40;99.90;;;;;;5095261;28;20246;-47
2023/11/09 11:26:48;;;;;;;4.37;3.10;;;10.40;99.90;;;;;;5084472;28;21210;-46
2023/11/09 11:29:17;;;;;;;3.23;2.80;;;10.50;99.90;;;;;;5087791;28;20636;-48
2023/11/09 11:31:46;;;;;;;3.50;3.23;;;10.50;99.90;;;;;;5088064;28;20259;-47
2023/11/09 11:34:16;;;;;;;3.50;3.07;;;10.60;99.90;;;;;;5088886;28;20243;-45
2023/11/09 11:36:48;;;;;;;3.77;3.57;;;10.70;99.90;;;;;;5083491;28;20229;-45
2023/11/09 11:39:41;;;;;;;3.83;3.47;;;10.70;99.90;;;;;;5102093;28;20709;-46
2023/11/09 11:42:18;;;;;;;5.80;3.43;;;10.70;99.90;;;;;;5092081;28;20212;-44
2023/11/09 11:44:52;;;;;;;3.60;3.40;;;10.80;99.90;;;;;;5089490;28;20230;-43
2023/11/09 11:47:21;;;;;;;3.77;3.47;;;10.80;99.90;;;;;;5090510;28;20249;-48
2023/11/09 11:49:49;;;;;;;3.40;3.20;;;10.70;99.90;;;;;;5061036;28;20268;-44
2023/11/09 11:52:19;;;;;;;2.83;2.63;;;10.70;99.90;;;;;;5099024;28;20189;-49
2023/11/09 11:54:48;;;;;;;15.73;7.83;;;10.70;99.90;;;;;;5085083;28;20196;-44
2023/11/09 11:57:15;;;;;;;3.20;3.00;;;10.70;99.90;;;;;;5083563;28;20204;-47
2023/11/09 11:59:44;;;;;;;3.40;3.20;;;10.80;99.90;;;;;;5088385;28;20207;-42
2023/11/09 12:02:12;;;;;;;3.47;2.50;;;10.80;99.90;;;;;;5078978;28;20201;-49
2023/11/09 12:04:47;;;;;;;3.60;2.63;;;10.80;99.90;;;;;;5099581;28;20214;-45
2023/11/09 12:07:18;;;;;;;3.03;2.73;;;10.80;99.90;;;;;;5065041;28;20209;-50
2023/11/09 12:09:47;;;;;;;2.77;2.67;;;10.80;99.90;;;;;;5101338;28;20197;-42
2023/11/09 12:12:15;;;;;;;3.97;2.83;;;10.80;99.90;;;;;;5088887;28;20280;-45
2023/11/09 12:14:43;;;;;;;2.57;2.43;;;10.70;99.90;;;;;;5101748;28;20223;-47
2023/11/09 12:17:10;;;;;;;2.53;2.40;;;10.70;99.90;;;;;;5073727;28;20250;-49
2023/11/09 12:19:37;;;;;;;2.87;2.60;;;10.80;99.90;;;;;;5096858;28;20783;-48
2023/11/09 12:22:07;;;;;;;3.90;2.87;;;10.80;99.90;;;;;;5065227;28;20225;-48
2023/11/09 12:24:35;;;;;;;2.73;2.27;;;10.80;99.90;;;;;;5100279;28;20305;-45
2023/11/09 12:27:09;;;;;;;2.90;2.60;;;10.80;99.90;;;;;;5094622;28;20213;-46
2023/11/09 12:29:52;;;;;;;2.90;2.70;;;10.80;99.90;;;;;;5100910;28;20577;-42
2023/11/09 12:32:20;;;;;;;3.00;2.80;;;10.80;99.90;;;;;;5078449;28;20190;-44
2023/11/09 12:34:52;;;;;;;3.03;2.03;;;10.80;99.90;;;;;;5099935;28;20220;-41
2023/11/09 12:37:29;;;;;;;2.37;2.27;;;10.90;99.90;;;;;;5061757;28;21837;-44
2023/11/09 12:39:59;;;;;;;2.47;2.37;;;10.90;99.90;;;;;;5100468;27;20288;-48
2023/11/09 12:42:56;;;;;;;2.77;2.10;;;10.90;99.90;;;;;;5097174;28;20212;-44
2023/11/09 12:45:42;;;;;;;2.77;2.53;;;11.00;99.90;;;;;;5076942;28;20233;-42
2023/11/09 12:48:14;;;;;;;2.60;2.40;;;11.00;99.90;;;;;;5095513;28;20207;-47
2023/11/09 12:50:41;;;;;;;2.80;2.43;;;11.00;99.90;;;;;;5101140;28;20229;-42
2023/11/09 12:53:08;;;;;;;2.80;2.60;;;11.10;99.90;;;;;;5078280;27;20246;-45
2023/11/09 12:55:56;;;;;;;2.70;2.50;;;11.10;99.90;;;;;;5095853;27;20308;-42
2023/11/09 12:58:40;;;;;;;2.10;2.00;;;11.20;99.90;;;;;;5092006;28;20206;-42
2023/11/09 13:01:14;;;;;;;2.03;1.93;;;11.20;99.90;;;;;;5080674;28;20300;-45
2023/11/09 13:03:56;;;;;;;2.10;2.00;;;11.20;99.90;;;;;;5092346;28;20200;-44
2023/11/09 13:06:26;;;;;;;2.13;1.90;;;11.30;99.90;;;;;;5093490;27;20213;-42
2023/11/09 13:09:02;;;;;;;2.17;2.07;;;11.30;99.90;;;;;;5101820;28;20205;-48
2023/11/09 13:11:40;;;;;;;1.77;1.67;;;11.40;99.90;;;;;;5078145;28;20197;-48
2023/11/09 13:14:17;;;;;;;2.80;1.90;;;11.40;99.90;;;;;;5091869;28;20684;-52
2023/11/09 13:16:44;;;;;;;2.90;1.97;;;11.50;99.90;;;;;;5091670;28;20220;-46
2023/11/09 13:19:12;;;;;;;1.87;1.67;;;11.50;99.90;;;;;;5102761;28;20247;-49
2023/11/09 13:21:40;;;;;;;4.30;1.83;;;11.40;99.90;;;;;;5101418;28;20185;-47
2023/11/09 13:24:08;;;;;;;1.93;1.83;;;11.40;99.90;;;;;;5091758;27;20207;-47
2023/11/09 13:26:35;;;;;;;1.60;1.50;;;11.40;99.90;;;;;;5097895;27;20217;-47
2023/11/09 13:29:10;;;;;;;1.73;1.63;;;11.40;99.90;;;;;;5098939;28;20208;-44
2023/11/09 13:31:39;;;;;;;1.50;1.40;;;11.40;99.90;;;;;;5087507;28;20332;-49
2023/11/09 13:34:07;;;;;;;2.93;1.57;;;11.40;99.90;;;;;;5102229;28;20202;-46